createdAt,value
2019-04-11T00:04:46.360Z,48.89
2019-04-11T00:09:51.335Z,48.95
2019-04-11T00:14:58.545Z,49.08
2019-04-11T00:20:04.238Z,49.43
2019-04-11T00:25:09.519Z,49.66
2019-04-11T00:30:17.823Z,49.89
2019-04-11T00:35:23.830Z,50.18
2019-04-11T00:40:29.149Z,49.90
2019-04-11T00:45:34.049Z,50.37
2019-04-11T00:50:39.210Z,50.51
2019-04-11T00:55:44.244Z,50.68
2019-04-11T01:00:49.690Z,50.48
2019-04-11T01:05:55.553Z,51.01
2019-04-11T01:11:01.633Z,51.05
2019-04-11T01:16:20.222Z,51.45
2019-04-11T01:21:26.379Z,51.46
2019-04-11T01:26:31.646Z,51.45
2019-04-11T01:31:37.971Z,51.37
2019-04-11T01:36:43.023Z,51.68
2019-04-11T01:41:48.860Z,52.02
2019-04-11T01:46:54.190Z,51.87
2019-04-11T01:52:00.098Z,52.32
2019-04-11T01:57:05.475Z,52.81
2019-04-11T02:02:30.424Z,53.11
2019-04-11T02:07:36.572Z,53.62
2019-04-11T02:12:42.041Z,53.34
2019-04-11T02:17:47.092Z,53.43
2019-04-11T02:23:06.773Z,53.60
2019-04-11T02:28:14.751Z,54.24
2019-04-11T02:33:21.582Z,54.19
2019-04-11T02:38:28.457Z,53.99
2019-04-11T02:43:36.471Z,54.32
2019-04-11T02:48:42.687Z,54.54
2019-04-11T02:53:49.694Z,55.03
2019-04-11T02:58:56.469Z,55.63
2019-04-11T03:04:02.506Z,55.83
2019-04-11T03:09:08.817Z,55.45
2019-04-11T03:14:14.613Z,55.83
2019-04-11T03:19:35.543Z,56.51
2019-04-11T03:24:29.481Z,56.71
2019-04-11T03:29:36.131Z,56.67
2019-04-11T03:40:07.904Z,56.60
2019-04-11T03:45:19.084Z,56.86
2019-04-11T03:50:07.625Z,56.46
2019-04-11T03:55:08.674Z,56.27
2019-04-11T04:00:15.573Z,56.29
2019-04-11T04:05:21.667Z,56.40
2019-04-11T04:10:29.535Z,56.22
2019-04-11T04:15:59.775Z,56.70
2019-04-11T04:21:06.409Z,57.04
2019-04-11T04:26:12.185Z,57.14
2019-04-11T04:31:18.447Z,57.12
2019-04-11T04:36:25.260Z,57.38
2019-04-11T04:41:39.188Z,58.20
2019-04-11T04:46:55.850Z,58.29
2019-04-11T04:51:47.874Z,58.23
2019-04-11T04:56:54.520Z,57.85
2019-04-11T05:02:01.759Z,57.88
2019-04-11T05:07:07.373Z,57.78
2019-04-11T05:12:13.821Z,57.86
2019-04-11T05:17:19.348Z,57.59
2019-04-11T05:22:24.682Z,57.31
2019-04-11T05:27:35.721Z,57.72
2019-04-11T05:32:41.735Z,58.20
2019-04-11T05:38:02.126Z,58.39
2019-04-11T05:43:07.937Z,58.09
2019-04-11T05:48:25.619Z,58.26
2019-04-11T05:53:33.015Z,58.07
2019-04-11T05:58:42.179Z,57.89
2019-04-11T06:03:45.842Z,58.10
2019-04-11T06:08:54.213Z,58.41
2019-04-11T06:14:22.869Z,58.70
2019-04-11T06:19:35.032Z,59.17
2019-04-11T06:24:59.015Z,58.88
2019-04-11T06:30:15.839Z,58.45
2019-04-11T06:35:28.568Z,58.71
2019-04-11T06:40:50.987Z,58.76
2019-04-11T06:46:33.323Z,58.85
2019-04-11T06:51:44.190Z,59.08
2019-04-11T06:56:51.029Z,57.68
2019-04-11T07:02:09.707Z,58.28
2019-04-11T07:07:09.903Z,57.69
2019-04-11T07:12:40.768Z,56.71
2019-04-11T07:18:06.253Z,56.76
2019-04-11T07:23:29.032Z,56.36
2019-04-11T07:28:48.380Z,56.57
2019-04-11T07:34:31.500Z,55.68
2019-04-11T07:40:07.432Z,55.74
2019-04-11T07:45:20.956Z,55.71
2019-04-11T07:50:26.272Z,55.09
2019-04-11T07:55:36.522Z,53.70
2019-04-11T08:00:55.853Z,53.99
2019-04-11T08:06:31.111Z,51.94
2019-04-11T08:11:44.739Z,51.92
2019-04-11T08:17:09.238Z,50.11
2019-04-11T08:22:35.022Z,50.88
2019-04-11T08:28:00.662Z,49.77
2019-04-11T08:33:07.434Z,50.16
2019-04-11T08:38:20.341Z,49.46
2019-04-11T08:43:31.231Z,49.03
2019-04-11T08:48:42.803Z,48.94
2019-04-11T08:54:27.193Z,47.20
2019-04-11T09:00:10.333Z,47.79
2019-04-11T09:05:49.291Z,47.69
2019-04-11T09:11:20.963Z,45.58
2019-04-11T09:16:44.201Z,44.14
2019-04-11T09:22:08.857Z,44.85
2019-04-11T09:27:51.131Z,45.24
2019-04-11T09:33:10.944Z,45.65
2019-04-11T09:38:16.274Z,46.86
2019-04-11T09:43:28.232Z,47.23
2019-04-11T09:48:55.942Z,46.37
2019-04-11T09:54:12.062Z,46.68
2019-04-11T09:59:22.992Z,46.75
2019-04-11T10:04:46.321Z,47.38
2019-04-11T10:10:08.564Z,48.68
2019-04-11T10:15:15.718Z,49.26
2019-04-11T10:20:21.838Z,47.67
2019-04-11T10:25:32.446Z,47.64
2019-04-11T10:30:55.843Z,47.86
2019-04-11T10:36:27.257Z,46.44
2019-04-11T10:41:37.910Z,46.25
2019-04-11T10:46:51.491Z,46.61
2019-04-11T10:52:08.194Z,46.60
2019-04-11T10:57:38.533Z,47.28
2019-04-11T11:03:18.201Z,47.64
2019-04-11T11:08:37.612Z,46.61
2019-04-11T11:14:05.168Z,44.54
2019-04-11T11:19:45.821Z,42.38
2019-04-11T11:25:06.408Z,42.24
2019-04-11T11:30:31.527Z,41.95
2019-04-11T11:36:10.655Z,41.29
2019-04-11T11:41:36.514Z,42.71
2019-04-11T11:47:06.551Z,44.00
2019-04-11T11:58:30.291Z,40.36
2019-04-11T12:04:01.915Z,43.40
2019-04-11T12:09:39.869Z,43.65
2019-04-11T12:15:17.323Z,43.91
2019-04-11T12:20:36.805Z,44.23
2019-04-11T12:25:45.167Z,44.31
2019-04-11T12:30:57.948Z,45.07
2019-04-11T12:36:06.099Z,46.08
2019-04-11T12:41:22.586Z,45.98
2019-04-11T12:46:45.515Z,45.60
2019-04-11T12:52:08.319Z,45.00
2019-04-11T12:57:31.132Z,45.07
2019-04-11T13:02:58.168Z,43.83
2019-04-11T13:08:28.029Z,44.53
2019-04-11T13:13:42.735Z,44.58
2019-04-11T13:19:01.701Z,44.72
2019-04-11T13:24:32.537Z,44.43
2019-04-11T13:30:03.436Z,43.98
2019-04-11T13:35:27.423Z,43.61
2019-04-11T13:40:55.680Z,43.14
2019-04-11T13:46:35.195Z,42.16
2019-04-11T13:52:12.085Z,43.12
2019-04-11T13:57:39.156Z,41.97
2019-04-11T14:02:59.823Z,42.75
2019-04-11T14:08:05.505Z,42.80
2019-04-11T14:13:10.699Z,43.20
2019-04-11T14:18:41.436Z,42.83
2019-04-11T14:24:01.838Z,42.35
2019-04-11T14:29:13.147Z,43.03
2019-04-11T14:34:57.734Z,44.14
2019-04-11T14:40:20.536Z,43.60
2019-04-11T14:45:45.071Z,43.50
2019-04-11T14:51:09.627Z,43.49
2019-04-11T14:56:14.982Z,43.24
2019-04-11T15:01:20.310Z,42.89
2019-04-11T15:06:31.493Z,42.68
2019-04-11T15:11:51.353Z,42.85
2019-04-11T15:17:14.446Z,43.56
2019-04-11T15:22:39.309Z,44.00
2019-04-11T15:28:13.801Z,43.54
2019-04-11T15:33:47.518Z,43.97
2019-04-11T15:39:12.474Z,43.77
2019-04-11T15:44:45.400Z,43.42
2019-04-11T15:50:10.187Z,42.55
2019-04-11T15:55:57.362Z,42.51
2019-04-11T16:01:21.152Z,42.96
2019-04-11T16:06:54.612Z,42.01
2019-04-11T16:12:12.249Z,42.13
2019-04-11T16:17:36.459Z,42.47
2019-04-11T16:23:09.540Z,42.84
2019-04-11T16:28:44.766Z,41.93
2019-04-11T16:34:10.137Z,42.65
2019-04-11T16:39:50.315Z,42.31
2019-04-11T16:45:12.251Z,42.39
2019-04-11T16:50:18.602Z,43.12
2019-04-11T16:55:28.963Z,42.39
2019-04-11T17:00:34.612Z,41.79
2019-04-11T17:05:42.049Z,41.22
2019-04-11T17:11:18.772Z,41.51
2019-04-11T17:16:23.877Z,41.58
2019-04-11T17:21:43.038Z,42.12
2019-04-11T17:26:44.213Z,42.26
2019-04-11T17:31:49.763Z,42.63
2019-04-11T17:36:55.390Z,43.11
2019-04-11T17:42:00.417Z,43.75
2019-04-11T17:47:06.015Z,44.23
2019-04-11T17:52:11.204Z,44.42
2019-04-11T17:58:15.578Z,44.96
2019-04-11T18:03:47.628Z,44.65
2019-04-11T18:09:08.089Z,44.83
2019-04-11T18:14:15.924Z,45.35
2019-04-11T18:19:25.624Z,46.08
2019-04-11T18:24:50.030Z,45.89
2019-04-11T18:29:54.853Z,46.33
2019-04-11T18:35:02.404Z,46.70
2019-04-11T18:40:10.489Z,46.78
2019-04-11T18:45:17.328Z,47.25
2019-04-11T18:50:22.954Z,47.80
2019-04-11T18:55:28.499Z,47.66
2019-04-11T19:00:35.829Z,47.47
2019-04-11T19:05:42.982Z,47.31
2019-04-11T19:10:48.218Z,47.35
2019-04-11T19:15:56.105Z,47.51
2019-04-11T19:21:03.763Z,48.02
2019-04-11T19:26:08.838Z,47.67
2019-04-11T19:31:14.754Z,47.74
2019-04-11T19:36:20.561Z,47.73
2019-04-11T19:41:26.311Z,47.79
2019-04-11T19:46:33.555Z,47.63
2019-04-11T19:51:40.964Z,47.68
2019-04-11T19:56:51.363Z,47.91
2019-04-11T20:01:57.236Z,47.91
2019-04-11T20:07:07.671Z,46.66
2019-04-11T20:12:15.124Z,46.56
2019-04-11T20:17:20.275Z,45.63
2019-04-11T20:22:25.525Z,46.81
2019-04-11T20:27:33.037Z,46.16
2019-04-11T20:32:38.734Z,46.27
2019-04-11T20:37:54.296Z,46.74
2019-04-11T20:43:00.242Z,46.54
2019-04-11T20:48:06.169Z,45.40
2019-04-11T20:53:54.066Z,44.46
2019-04-11T20:59:05.105Z,44.57
2019-04-11T21:04:11.401Z,44.18
2019-04-11T21:09:16.482Z,44.62
2019-04-11T21:14:21.543Z,44.49
2019-04-11T21:19:28.145Z,44.40
2019-04-11T21:24:33.229Z,43.91
2019-04-11T21:29:38.633Z,44.55
2019-04-11T21:34:43.598Z,44.95
2019-04-11T21:39:49.041Z,45.49
2019-04-11T21:44:54.520Z,45.80
2019-04-11T21:49:59.853Z,45.71
2019-04-11T21:55:05.027Z,45.90
2019-04-11T22:00:22.119Z,46.09
2019-04-11T22:05:28.927Z,46.17
2019-04-11T22:10:34.063Z,46.46
2019-04-11T22:15:42.096Z,46.54
2019-04-11T22:20:45.936Z,46.78
2019-04-11T22:25:50.979Z,47.27
2019-04-11T22:30:56.398Z,47.91
2019-04-11T22:36:01.391Z,48.50
2019-04-11T22:41:06.413Z,48.76
2019-04-11T22:46:20.316Z,49.23
2019-04-11T22:51:18.069Z,50.65
2019-04-11T22:56:23.161Z,51.62
2019-04-11T23:01:29.095Z,52.57
2019-04-11T23:06:34.116Z,52.96
2019-04-11T23:11:39.064Z,53.79
2019-04-11T23:16:44.745Z,54.40
2019-04-11T23:21:50.836Z,54.46
2019-04-11T23:27:32.875Z,55.12
2019-04-11T23:32:37.820Z,55.60
2019-04-11T23:37:52.303Z,55.91
2019-04-11T23:42:57.582Z,56.11
2019-04-11T23:48:02.587Z,56.88
2019-04-11T23:53:07.772Z,57.20
2019-04-11T23:58:12.774Z,57.29
